createdAt,value
2022-09-03T00:01:34.579Z,1.63
2022-09-03T00:04:11.215Z,5.38
2022-09-03T00:06:45.182Z,1.42
2022-09-03T00:09:18.700Z,1.33
2022-09-03T00:11:55.068Z,2.30
2022-09-03T00:14:27.741Z,1.00
2022-09-03T00:17:01.835Z,1.40
2022-09-03T00:19:34.852Z,1.27
2022-09-03T00:22:11.432Z,1.15
2022-09-03T00:24:42.472Z,2.47
2022-09-03T00:27:17.458Z,2.27
2022-09-03T00:29:51.814Z,2.88
2022-09-03T00:32:23.242Z,1.95
2022-09-03T00:34:56.961Z,0.77
2022-09-03T00:37:25.123Z,4.93
2022-09-03T00:39:56.794Z,2.25
2022-09-03T00:42:40.407Z,1.70
2022-09-03T00:45:24.155Z,1.02
2022-09-03T00:48:05.324Z,0.63
2022-09-03T00:50:47.591Z,1.30
2022-09-03T00:53:28.064Z,2.03
2022-09-03T00:56:03.929Z,1.27
2022-09-03T00:58:46.482Z,1.65
2022-09-03T01:01:24.117Z,2.15
2022-09-03T01:04:01.408Z,1.80
2022-09-03T01:06:40.755Z,1.35
2022-09-03T01:09:21.585Z,1.13
2022-09-03T01:12:00.589Z,0.95
2022-09-03T01:14:41.703Z,0.95
2022-09-03T01:17:20.328Z,1.47
2022-09-03T01:20:13.895Z,1.70
2022-09-03T01:23:15.704Z,3.10
2022-09-03T01:25:54.720Z,1.13
2022-09-03T01:28:43.103Z,4.55
2022-09-03T01:31:21.282Z,1.73
2022-09-03T01:33:56.580Z,2.40
2022-09-03T01:36:32.445Z,2.40
2022-09-03T01:39:03.572Z,1.73
2022-09-03T01:42:06.378Z,1.80
2022-09-03T01:44:44.605Z,3.00
2022-09-03T01:47:21.806Z,1.45
2022-09-03T01:49:59.674Z,1.27
2022-09-03T01:52:38.188Z,2.85
2022-09-03T01:55:20.300Z,1.13
2022-09-03T02:00:21.964Z,0.73
2022-09-03T02:02:52.217Z,2.97
2022-09-03T02:05:22.871Z,3.10
2022-09-03T02:07:56.995Z,0.70
2022-09-03T02:10:31.463Z,1.73
2022-09-03T02:13:03.054Z,2.33
2022-09-03T02:15:34.907Z,1.48
2022-09-03T02:20:34.019Z,1.17
2022-09-03T02:23:02.407Z,2.55
2022-09-03T02:25:36.295Z,0.77
2022-09-03T02:28:06.259Z,1.65
2022-09-03T02:30:46.669Z,2.28
2022-09-03T02:33:14.966Z,1.90
2022-09-03T02:35:44.089Z,1.83
2022-09-03T02:38:13.796Z,1.83
2022-09-03T02:40:42.129Z,0.77
2022-09-03T02:43:15.104Z,1.23
2022-09-03T02:45:47.792Z,0.57
2022-09-03T02:48:21.560Z,2.22
2022-09-03T02:50:50.127Z,4.25
2022-09-03T02:53:18.740Z,1.10
2022-09-03T02:55:47.348Z,2.10
2022-09-03T02:58:15.610Z,1.10
2022-09-03T03:00:45.004Z,1.80
2022-09-03T03:03:14.522Z,1.85
2022-09-03T03:05:47.767Z,1.48
2022-09-03T03:08:17.087Z,1.08
2022-09-03T03:10:46.253Z,0.85
2022-09-03T03:13:15.052Z,1.55
2022-09-03T03:15:43.429Z,1.15
2022-09-03T03:18:12.300Z,1.58
2022-09-03T03:20:43.130Z,1.55
2022-09-03T03:23:11.621Z,3.35
2022-09-03T03:25:41.237Z,0.95
2022-09-03T03:28:10.074Z,0.93
2022-09-03T03:30:40.407Z,1.05
2022-09-03T03:33:08.967Z,2.60
2022-09-03T03:35:37.306Z,1.02
2022-09-03T03:38:06.785Z,2.05
2022-09-03T03:40:35.453Z,1.15
2022-09-03T03:43:03.597Z,0.73
2022-09-03T03:45:32.059Z,1.77
2022-09-03T03:48:00.508Z,1.42
2022-09-03T03:50:29.642Z,1.45
2022-09-03T03:53:01.775Z,1.42
2022-09-03T03:55:35.116Z,0.93
2022-09-03T03:58:03.832Z,2.25
2022-09-03T04:00:32.243Z,1.85
2022-09-03T04:03:01.022Z,1.90
2022-09-03T04:05:33.692Z,1.27
2022-09-03T04:08:04.141Z,1.45
2022-09-03T04:10:33.778Z,1.98
2022-09-03T04:13:02.238Z,1.10
2022-09-03T04:15:30.489Z,1.10
2022-09-03T04:17:58.651Z,2.85
2022-09-03T04:20:27.177Z,1.90
2022-09-03T04:22:55.322Z,0.93
2022-09-03T04:25:23.426Z,1.15
2022-09-03T04:27:54.592Z,1.60
2022-09-03T04:30:23.103Z,1.48
2022-09-03T04:32:53.590Z,1.50
2022-09-03T04:35:22.091Z,1.73
2022-09-03T04:37:50.381Z,1.48
2022-09-03T04:40:18.886Z,1.20
2022-09-03T04:42:47.132Z,1.17
2022-09-03T04:45:19.573Z,3.00
2022-09-03T04:47:57.974Z,0.57
2022-09-03T04:50:27.951Z,1.15
2022-09-03T04:52:59.172Z,1.23
2022-09-03T04:55:27.577Z,1.45
2022-09-03T04:57:55.946Z,1.23
2022-09-03T05:00:25.568Z,2.00
2022-09-03T05:02:53.816Z,2.72
2022-09-03T05:05:22.660Z,2.85
2022-09-03T05:07:50.857Z,1.42
2022-09-03T05:10:21.548Z,3.65
2022-09-03T05:12:59.039Z,8.40
2022-09-03T05:15:29.013Z,1.63
2022-09-03T05:18:01.908Z,1.63
2022-09-03T05:20:31.489Z,2.63
2022-09-03T05:23:03.186Z,4.82
2022-09-03T05:25:32.576Z,1.67
2022-09-03T05:28:01.732Z,2.20
2022-09-03T05:30:31.186Z,2.13
2022-09-03T05:32:59.412Z,1.85
2022-09-03T05:35:30.089Z,2.78
2022-09-03T05:38:00.836Z,3.43
2022-09-03T05:40:29.624Z,2.80
2022-09-03T05:42:59.875Z,1.27
2022-09-03T05:45:29.857Z,1.10
2022-09-03T05:48:01.785Z,1.63
2022-09-03T05:52:59.655Z,3.30
2022-09-03T05:55:28.703Z,2.60
2022-09-03T05:57:56.807Z,5.03
2022-09-03T06:00:24.951Z,3.45
2022-09-03T06:02:53.667Z,3.40
2022-09-03T06:05:23.386Z,2.85
2022-09-03T06:07:52.908Z,10.82
2022-09-03T06:10:25.439Z,5.53
2022-09-03T06:12:55.234Z,3.50
2022-09-03T06:15:23.333Z,7.20
2022-09-03T06:17:51.595Z,2.00
2022-09-03T06:20:20.209Z,2.70
2022-09-03T06:22:53.565Z,2.08
2022-09-03T06:25:21.718Z,3.40
2022-09-03T06:27:50.575Z,1.73
2022-09-03T06:30:18.880Z,4.28
2022-09-03T06:32:47.324Z,2.10
2022-09-03T06:35:15.855Z,2.55
2022-09-03T06:37:44.527Z,3.08
2022-09-03T06:40:14.297Z,1.65
2022-09-03T06:42:45.766Z,0.93
2022-09-03T06:45:14.224Z,1.75
2022-09-03T06:47:42.436Z,3.53
2022-09-03T06:50:11.043Z,1.48
2022-09-03T06:52:39.174Z,3.10
2022-09-03T06:55:08.328Z,3.25
2022-09-03T06:57:37.813Z,6.20
2022-09-03T07:00:07.160Z,7.43
2022-09-03T07:02:35.250Z,22.58
2022-09-03T07:05:03.379Z,46.08
2022-09-03T07:07:32.955Z,33.50
2022-09-03T07:10:01.840Z,27.27
2022-09-03T07:12:29.991Z,28.55
2022-09-03T07:14:59.674Z,16.63
2022-09-03T07:17:28.519Z,11.55
2022-09-03T07:19:58.615Z,16.58
2022-09-03T07:22:31.344Z,13.05
2022-09-03T07:25:00.040Z,12.38
2022-09-03T07:27:28.226Z,19.77
2022-09-03T07:29:56.343Z,18.45
2022-09-03T07:32:26.007Z,6.43
2022-09-03T07:34:54.107Z,7.07
2022-09-03T07:37:22.315Z,9.68
2022-09-03T07:39:50.659Z,10.90
2022-09-03T07:42:18.941Z,6.03
2022-09-03T07:44:47.017Z,5.93
2022-09-03T07:47:15.749Z,2.40
2022-09-03T07:49:52.955Z,1.38
2022-09-03T07:52:21.311Z,2.38
2022-09-03T07:54:50.749Z,1.15
2022-09-03T07:57:18.987Z,7.80
2022-09-03T07:59:48.105Z,3.65
2022-09-03T08:02:16.484Z,2.28
2022-09-03T08:04:45.515Z,1.30
2022-09-03T08:07:15.356Z,1.55
2022-09-03T08:09:43.523Z,1.15
2022-09-03T08:12:11.679Z,1.90
2022-09-03T08:14:39.791Z,2.60
2022-09-03T08:17:08.023Z,2.97
2022-09-03T08:19:36.337Z,2.35
2022-09-03T08:22:04.510Z,2.72
2022-09-03T08:24:34.387Z,3.45
2022-09-03T08:27:02.791Z,5.78
2022-09-03T08:29:30.910Z,1.98
2022-09-03T08:31:59.693Z,1.80
2022-09-03T08:34:28.157Z,1.83
2022-09-03T08:36:56.351Z,1.58
2022-09-03T08:39:24.826Z,2.35
2022-09-03T08:42:20.038Z,1.80
2022-09-03T08:44:51.297Z,1.90
2022-09-03T08:47:23.501Z,1.30
2022-09-03T08:49:56.359Z,2.85
2022-09-03T08:52:32.559Z,13.82
2022-09-03T08:55:14.175Z,2.28
2022-09-03T08:57:47.030Z,5.75
2022-09-03T09:00:16.161Z,3.40
2022-09-03T09:02:57.262Z,2.58
2022-09-03T09:05:35.175Z,2.00
2022-09-03T09:08:09.973Z,2.45
2022-09-03T09:10:45.587Z,2.45
2022-09-03T09:13:25.370Z,2.47
2022-09-03T09:16:03.401Z,1.63
2022-09-03T09:18:44.061Z,3.05
2022-09-03T09:21:21.411Z,1.17
2022-09-03T09:23:52.170Z,2.92
2022-09-03T09:26:22.576Z,3.03
2022-09-03T09:28:59.171Z,3.42
2022-09-03T09:31:31.010Z,2.13
2022-09-03T09:34:07.036Z,2.25
2022-09-03T09:36:49.455Z,2.88
2022-09-03T09:39:17.916Z,2.10
2022-09-03T09:41:59.049Z,4.00
2022-09-03T09:44:28.625Z,2.67
2022-09-03T09:47:09.801Z,1.50
2022-09-03T09:49:44.649Z,1.30
2022-09-03T09:52:14.364Z,1.65
2022-09-03T09:54:44.313Z,3.58
2022-09-03T09:57:18.676Z,3.83
2022-09-03T09:59:49.456Z,0.98
2022-09-03T10:02:27.885Z,1.92
2022-09-03T10:05:02.012Z,4.63
2022-09-03T10:07:33.141Z,4.60
2022-09-03T10:10:03.379Z,1.48
2022-09-03T10:12:36.583Z,1.60
2022-09-03T10:15:24.568Z,1.38
2022-09-03T10:17:59.430Z,1.67
2022-09-03T10:20:34.206Z,1.70
2022-09-03T10:23:08.944Z,4.22
2022-09-03T10:25:41.828Z,2.65
2022-09-03T10:28:23.522Z,3.45
2022-09-03T10:31:13.521Z,1.58
2022-09-03T10:33:49.703Z,1.50
2022-09-03T10:36:22.291Z,1.20
2022-09-03T10:38:54.933Z,2.80
2022-09-03T10:41:41.502Z,3.47
2022-09-03T10:44:40.176Z,2.50
2022-09-03T10:47:23.560Z,1.48
2022-09-03T10:50:01.758Z,3.35
2022-09-03T10:52:39.234Z,1.65
2022-09-03T10:55:17.850Z,1.55
2022-09-03T10:57:54.269Z,3.97
2022-09-03T11:00:22.620Z,4.22
2022-09-03T11:03:28.919Z,2.33
2022-09-03T11:06:04.192Z,3.28
2022-09-03T11:08:37.701Z,2.20
2022-09-03T11:11:15.304Z,1.25
2022-09-03T11:13:48.466Z,2.33
2022-09-03T11:16:20.178Z,3.17
2022-09-03T11:18:52.691Z,4.55
2022-09-03T11:21:24.839Z,4.35
2022-09-03T11:24:05.509Z,6.47
2022-09-03T11:26:35.259Z,2.97
2022-09-03T11:29:08.230Z,1.15
2022-09-03T11:31:48.118Z,1.63
2022-09-03T11:34:31.933Z,2.25
2022-09-03T11:37:16.767Z,2.40
2022-09-03T11:39:45.019Z,1.52
2022-09-03T11:42:27.507Z,2.78
2022-09-03T11:45:02.861Z,2.08
2022-09-03T11:47:41.259Z,1.20
2022-09-03T11:50:21.421Z,1.45
2022-09-03T11:52:52.014Z,1.75
2022-09-03T11:55:32.671Z,3.63
2022-09-03T11:58:14.311Z,2.70
2022-09-03T12:00:45.264Z,2.42
2022-09-03T12:03:18.097Z,2.55
2022-09-03T12:05:58.820Z,1.80
2022-09-03T12:08:54.331Z,1.33
2022-09-03T12:11:36.111Z,2.10
2022-09-03T12:17:04.976Z,1.58
2022-09-03T12:19:39.211Z,2.03
2022-09-03T12:22:15.120Z,2.30
2022-09-03T12:24:45.096Z,1.02
2022-09-03T12:27:21.166Z,2.40
2022-09-03T12:29:59.912Z,1.42
2022-09-03T12:32:32.200Z,3.15
2022-09-03T12:35:11.804Z,2.35
2022-09-03T12:40:33.718Z,2.63
2022-09-03T12:46:11.215Z,1.52
2022-09-03T12:48:43.561Z,2.20
2022-09-03T12:54:03.114Z,2.85
2022-09-03T12:56:35.523Z,2.93
2022-09-03T12:59:08.322Z,2.17
2022-09-03T13:01:41.840Z,1.40
2022-09-03T13:04:15.409Z,1.52
2022-09-03T13:06:51.808Z,3.30
2022-09-03T13:09:26.429Z,1.77
2022-09-03T13:11:55.609Z,1.42
2022-09-03T13:14:24.050Z,1.77
2022-09-03T13:17:17.506Z,1.95
2022-09-03T13:20:23.157Z,3.83
2022-09-03T13:23:08.055Z,3.55
2022-09-03T13:25:44.071Z,3.15
2022-09-03T13:28:27.852Z,2.28
2022-09-03T13:31:01.543Z,1.20
2022-09-03T13:33:36.357Z,2.08
2022-09-03T13:36:10.898Z,3.67
2022-09-03T13:38:44.921Z,2.22
2022-09-03T13:41:20.813Z,3.33
2022-09-03T13:43:56.376Z,2.28
2022-09-03T13:46:31.483Z,2.33
2022-09-03T13:49:23.602Z,1.58
2022-09-03T13:51:54.745Z,3.67
2022-09-03T13:54:48.285Z,3.70
2022-09-03T13:57:28.933Z,1.85
2022-09-03T14:00:03.136Z,1.10
2022-09-03T14:02:42.685Z,2.03
2022-09-03T14:05:15.767Z,3.15
2022-09-03T14:07:55.464Z,3.38
2022-09-03T14:10:28.865Z,1.77
2022-09-03T14:13:10.126Z,6.00
2022-09-03T14:15:45.837Z,2.20
2022-09-03T14:18:23.629Z,2.08
2022-09-03T14:20:59.230Z,2.08
2022-09-03T14:23:35.986Z,4.80
2022-09-03T14:26:07.205Z,3.72
2022-09-03T14:31:18.390Z,4.25
2022-09-03T14:33:54.523Z,1.90
2022-09-03T14:36:30.239Z,1.33
2022-09-03T14:39:27.708Z,2.60
2022-09-03T14:42:21.174Z,2.40
2022-09-03T14:45:24.657Z,4.10
2022-09-03T14:48:11.150Z,2.28
2022-09-03T14:50:52.409Z,2.67
2022-09-03T14:53:37.165Z,3.03
2022-09-03T14:56:18.898Z,1.77
2022-09-03T15:04:46.558Z,1.88
2022-09-03T15:07:34.041Z,3.60
2022-09-03T15:10:13.911Z,2.35
2022-09-03T15:12:46.500Z,2.40
2022-09-03T15:15:20.090Z,2.28
2022-09-03T15:17:58.667Z,6.35
2022-09-03T15:20:37.579Z,9.07
2022-09-03T15:23:20.941Z,1.75
2022-09-03T15:26:17.600Z,2.08
2022-09-03T15:29:04.842Z,3.67
2022-09-03T15:31:46.856Z,1.50
2022-09-03T15:34:33.618Z,1.88
2022-09-03T15:37:10.015Z,1.90
2022-09-03T15:39:44.518Z,3.55
2022-09-03T15:42:23.728Z,1.38
2022-09-03T15:44:55.354Z,2.88
2022-09-03T15:50:30.819Z,1.73
2022-09-03T15:53:07.949Z,3.10
2022-09-03T15:55:40.202Z,3.22
2022-09-03T15:58:20.833Z,1.85
2022-09-03T16:01:00.066Z,1.77
2022-09-03T16:03:45.513Z,4.00
2022-09-03T16:06:37.489Z,2.35
2022-09-03T16:09:19.026Z,2.10
2022-09-03T16:11:57.960Z,4.47
2022-09-03T16:14:32.227Z,3.78
2022-09-03T16:17:08.451Z,3.42
2022-09-03T16:19:43.163Z,2.03
2022-09-03T16:22:23.540Z,1.60
2022-09-03T16:25:00.179Z,3.30
2022-09-03T16:27:33.748Z,2.33
2022-09-03T16:30:08.970Z,2.05
2022-09-03T16:33:03.025Z,1.30
2022-09-03T16:35:44.643Z,2.35
2022-09-03T16:40:56.893Z,1.70
2022-09-03T16:43:41.390Z,2.35
2022-09-03T16:46:24.349Z,4.57
2022-09-03T16:49:03.322Z,4.70
2022-09-03T16:51:41.069Z,2.80
2022-09-03T16:54:32.404Z,1.83
2022-09-03T16:57:08.534Z,3.13
2022-09-03T17:00:03.279Z,2.00
2022-09-03T17:03:06.539Z,1.90
2022-09-03T17:05:48.137Z,1.60
2022-09-03T17:08:26.434Z,2.42
2022-09-03T17:11:08.568Z,2.47
2022-09-03T17:13:52.211Z,2.17
2022-09-03T17:16:30.223Z,1.88
2022-09-03T17:19:07.826Z,1.90
2022-09-03T17:21:46.955Z,1.42
2022-09-03T17:24:33.511Z,2.78
2022-09-03T17:27:42.548Z,1.92
2022-09-03T17:30:17.713Z,1.55
2022-09-03T17:33:31.327Z,2.92
2022-09-03T17:36:08.970Z,2.97
2022-09-03T17:39:03.710Z,2.10
2022-09-03T17:41:42.014Z,2.17
2022-09-03T17:44:20.922Z,2.90
2022-09-03T17:46:59.875Z,5.55
2022-09-03T17:49:31.498Z,3.88
2022-09-03T17:54:39.717Z,1.63
2022-09-03T17:57:19.095Z,5.95
2022-09-03T17:59:54.194Z,2.45
2022-09-03T18:02:31.090Z,1.95
2022-09-03T18:05:04.278Z,2.58
2022-09-03T18:07:40.531Z,2.58
2022-09-03T18:10:19.050Z,2.17
2022-09-03T18:13:03.592Z,2.20
2022-09-03T18:15:38.810Z,1.90
2022-09-03T18:18:11.618Z,2.00
2022-09-03T18:21:22.249Z,2.83
2022-09-03T18:27:02.594Z,1.65
2022-09-03T18:29:55.074Z,3.70
2022-09-03T18:32:42.034Z,2.70
2022-09-03T18:35:28.400Z,2.28
2022-09-03T18:38:14.608Z,1.42
2022-09-03T18:41:11.482Z,1.27
2022-09-03T18:44:06.879Z,3.28
2022-09-03T18:50:22.301Z,2.05
2022-09-03T18:53:14.817Z,1.17
2022-09-03T18:56:12.184Z,1.88
2022-09-03T18:59:09.264Z,3.90
2022-09-03T19:01:57.531Z,1.27
2022-09-03T19:04:53.603Z,1.92
2022-09-03T19:07:50.697Z,2.05
2022-09-03T19:10:43.812Z,1.52
2022-09-03T19:13:44.222Z,1.70
2022-09-03T19:16:37.470Z,3.40
2022-09-03T19:19:44.280Z,1.67
2022-09-03T19:22:31.496Z,2.90
2022-09-03T19:25:21.695Z,1.52
2022-09-03T19:28:21.651Z,2.65
2022-09-03T19:31:18.313Z,2.72
2022-09-03T19:34:10.633Z,2.95
2022-09-03T19:37:02.945Z,4.10
2022-09-03T19:40:04.470Z,3.33
2022-09-03T19:43:05.207Z,3.83
2022-09-03T19:46:00.131Z,4.22
2022-09-03T19:48:54.912Z,2.03
2022-09-03T19:51:48.176Z,7.25
2022-09-03T19:54:38.916Z,8.25
2022-09-03T19:57:25.304Z,6.35
2022-09-03T20:00:12.111Z,3.85
2022-09-03T20:02:59.571Z,1.80
2022-09-03T20:05:46.001Z,1.20
2022-09-03T20:08:35.240Z,1.58
2022-09-03T20:11:05.467Z,3.53
2022-09-03T20:13:55.582Z,2.40
2022-09-03T20:16:31.070Z,1.77
2022-09-03T20:19:05.796Z,2.05
2022-09-03T20:21:40.758Z,6.68
2022-09-03T20:24:24.934Z,3.47
2022-09-03T20:27:01.517Z,7.03
2022-09-03T20:29:49.451Z,3.08
2022-09-03T20:32:52.356Z,3.78
2022-09-03T20:35:31.879Z,3.65
2022-09-03T20:38:10.345Z,7.05
2022-09-03T20:40:47.550Z,1.85
2022-09-03T20:43:47.533Z,3.00
2022-09-03T20:46:28.721Z,3.53
2022-09-03T20:49:07.745Z,3.08
2022-09-03T20:51:42.826Z,2.47
2022-09-03T20:54:17.065Z,2.63
2022-09-03T20:56:59.298Z,2.25
2022-09-03T20:59:39.998Z,3.15
2022-09-03T21:02:18.681Z,4.93
2022-09-03T21:05:00.409Z,2.10
2022-09-03T21:07:39.957Z,1.83
2022-09-03T21:10:16.951Z,4.00
2022-09-03T21:12:53.106Z,1.30
2022-09-03T21:15:29.634Z,3.85
2022-09-03T21:18:07.542Z,1.45
2022-09-03T21:20:45.551Z,4.50
2022-09-03T21:23:20.599Z,2.15
2022-09-03T21:25:55.230Z,3.17
2022-09-03T21:28:28.560Z,3.35
2022-09-03T21:31:01.357Z,2.10
2022-09-03T21:33:32.813Z,5.25
2022-09-03T21:36:08.315Z,3.90
2022-09-03T21:38:39.375Z,6.25
2022-09-03T21:41:18.386Z,2.85
2022-09-03T21:43:51.763Z,1.67
2022-09-03T21:46:24.921Z,2.55
2022-09-03T21:48:57.653Z,8.43
2022-09-03T21:51:34.243Z,3.38
2022-09-03T21:54:06.581Z,1.33
2022-09-03T21:57:03.811Z,1.67
2022-09-03T22:00:07.807Z,1.77
2022-09-03T22:02:36.444Z,2.13
2022-09-03T22:05:06.579Z,2.38
2022-09-03T22:07:53.568Z,3.90
2022-09-03T22:10:27.781Z,4.95
2022-09-03T22:13:04.587Z,3.03
2022-09-03T22:15:35.448Z,4.65
2022-09-03T22:18:15.420Z,3.53
2022-09-03T22:20:49.739Z,5.68
2022-09-03T22:23:24.837Z,4.18
2022-09-03T22:26:01.340Z,7.03
2022-09-03T22:28:38.282Z,3.75
2022-09-03T22:31:15.583Z,2.78
2022-09-03T22:33:48.586Z,2.70
2022-09-03T22:36:19.523Z,2.75
2022-09-03T22:39:11.739Z,1.77
2022-09-03T22:42:00.855Z,3.90
2022-09-03T22:44:49.215Z,2.25
2022-09-03T22:47:29.955Z,4.07
2022-09-03T22:50:09.676Z,2.53
2022-09-03T22:52:43.167Z,2.33
2022-09-03T22:55:18.423Z,2.03
2022-09-03T22:57:55.951Z,1.70
2022-09-03T23:00:24.270Z,2.88
2022-09-03T23:03:00.706Z,3.45
2022-09-03T23:05:37.731Z,2.58
2022-09-03T23:08:11.022Z,2.42
2022-09-03T23:10:55.191Z,2.17
2022-09-03T23:13:26.685Z,3.17
2022-09-03T23:16:02.128Z,4.50
2022-09-03T23:18:33.556Z,3.40
2022-09-03T23:21:07.853Z,2.88
2022-09-03T23:23:39.866Z,2.05
2022-09-03T23:26:23.452Z,1.90
2022-09-03T23:28:58.506Z,1.85
2022-09-03T23:31:28.844Z,2.65
2022-09-03T23:33:57.361Z,2.60
2022-09-03T23:39:51.708Z,2.55
2022-09-03T23:42:28.102Z,2.65
2022-09-03T23:45:15.362Z,2.33
2022-09-03T23:47:50.903Z,2.35
2022-09-03T23:50:33.103Z,2.20
2022-09-03T23:53:28.758Z,4.10
2022-09-03T23:56:19.966Z,3.00
2022-09-03T23:59:01.466Z,2.63
